AFL600 URSS-UDYZ
Flight info
| Callsign | AFL600 |
|---|---|
| Flight time | 1h 4m |
| Altitude | 37000 |
| Route | TABAN1D TABAN N166 OGMOS B143 IDLER M747 BARUS DCT OGEVI T918 TIBLO |
| Aircraft | B738/M-SDE2E3FGHIRWXY/LB1 |
Departure
| Time | 2026-05-07 11:53 |
|---|---|
| Airport | Sochi International Airport (URSS) |
Arrival
| Time | 2026-05-07 12:57 |
|---|---|
| Airport | Zvartnots International Airport (UDYZ) |
| Time | Latitude | Longitude | Altitude | Speed | Heading |
|---|---|---|---|---|---|
| 2026-05-07 11:16 | 43.44815 | 39.94373 | 63 ft | 0 kts | 334° |
| 2026-05-07 11:46 | 43.44800 | 39.94382 | 65 ft | 2 kts | 334° |
| 2026-05-07 11:46 | 43.44786 | 39.94392 | 70 ft | 2 kts | 334° |
| 2026-05-07 11:46 | 43.44771 | 39.94401 | 67 ft | 2 kts | 334° |
| 2026-05-07 11:47 | 43.44757 | 39.94411 | 70 ft | 2 kts | 334° |
| 2026-05-07 11:47 | 43.44742 | 39.94420 | 64 ft | 2 kts | 334° |
| 2026-05-07 11:47 | 43.44727 | 39.94430 | 68 ft | 2 kts | 340° |
| 2026-05-07 11:47 | 43.44712 | 39.94432 | 67 ft | 2 kts | 28° |
| 2026-05-07 11:48 | 43.44699 | 39.94418 | 65 ft | 2 kts | 51° |
| 2026-05-07 11:48 | 43.44693 | 39.94405 | 66 ft | 0 kts | 65° |
| 2026-05-07 11:49 | 43.44698 | 39.94421 | 66 ft | 8 kts | 64° |
| 2026-05-07 11:49 | 43.44733 | 39.94523 | 69 ft | 13 kts | 65° |
| 2026-05-07 11:49 | 43.44758 | 39.94596 | 66 ft | 12 kts | 65° |
| 2026-05-07 11:50 | 43.44795 | 39.94703 | 74 ft | 12 kts | 65° |
| 2026-05-07 11:50 | 43.44830 | 39.94806 | 72 ft | 12 kts | 65° |
| 2026-05-07 11:50 | 43.44864 | 39.94906 | 74 ft | 11 kts | 65° |
| 2026-05-07 11:50 | 43.44898 | 39.95005 | 76 ft | 11 kts | 65° |
| 2026-05-07 11:51 | 43.44931 | 39.95100 | 84 ft | 11 kts | 62° |
| 2026-05-07 11:51 | 43.44965 | 39.95191 | 88 ft | 11 kts | 65° |
| 2026-05-07 11:51 | 43.44994 | 39.95282 | 86 ft | 10 kts | 77° |
| 2026-05-07 11:51 | 43.44955 | 39.95354 | 91 ft | 10 kts | 151° |
| 2026-05-07 11:52 | 43.44888 | 39.95331 | 85 ft | 17 kts | 233° |
| 2026-05-07 11:52 | 43.44807 | 39.95098 | 75 ft | 42 kts | 245° |
| 2026-05-07 11:52 | 43.44568 | 39.94398 | 66 ft | 117 kts | 245° |
| 2026-05-07 11:52 | 43.44133 | 39.93117 | 174 ft | 169 kts | 245° |
| 2026-05-07 11:53 | 43.43666 | 39.91672 | 1136 ft | 161 kts | 247° |
| 2026-05-07 11:53 | 43.43361 | 39.90101 | 1889 ft | 180 kts | 261° |
| 2026-05-07 11:53 | 43.43117 | 39.88260 | 2116 ft | 208 kts | 259° |
| 2026-05-07 11:53 | 43.42810 | 39.86197 | 2299 ft | 231 kts | 258° |
| 2026-05-07 11:54 | 43.42460 | 39.83980 | 2748 ft | 242 kts | 258° |
| 2026-05-07 11:54 | 43.42086 | 39.81693 | 3445 ft | 245 kts | 258° |
| 2026-05-07 11:54 | 43.41702 | 39.79406 | 4170 ft | 247 kts | 257° |
| 2026-05-07 11:54 | 43.41310 | 39.77114 | 4856 ft | 251 kts | 258° |
| 2026-05-07 11:55 | 43.40905 | 39.74768 | 5531 ft | 254 kts | 258° |
| 2026-05-07 11:55 | 43.40489 | 39.72385 | 6230 ft | 257 kts | 257° |
| 2026-05-07 11:55 | 43.40065 | 39.69967 | 6834 ft | 262 kts | 257° |
| 2026-05-07 11:55 | 43.39635 | 39.67520 | 6970 ft | 263 kts | 257° |
| 2026-05-07 11:56 | 43.39392 | 39.65052 | 6977 ft | 262 kts | 278° |
| 2026-05-07 11:56 | 43.40028 | 39.62744 | 7006 ft | 261 kts | 308° |
| 2026-05-07 11:56 | 43.41417 | 39.61087 | 7222 ft | 273 kts | 333° |
| 2026-05-07 11:56 | 43.43166 | 39.60060 | 7909 ft | 275 kts | 340° |
| 2026-05-07 11:57 | 43.44958 | 39.59105 | 8691 ft | 276 kts | 340° |
| 2026-05-07 11:57 | 43.46778 | 39.58234 | 9409 ft | 280 kts | 351° |
| 2026-05-07 11:57 | 43.48692 | 39.58334 | 9981 ft | 282 kts | 17° |
| 2026-05-07 11:57 | 43.50383 | 39.59586 | 9988 ft | 276 kts | 44° |
| 2026-05-07 11:58 | 43.51476 | 39.61780 | 10118 ft | 288 kts | 68° |
| 2026-05-07 11:58 | 43.51949 | 39.64561 | 10352 ft | 310 kts | 82° |
| 2026-05-07 11:58 | 43.52142 | 39.67578 | 10835 ft | 319 kts | 84° |
| 2026-05-07 11:58 | 43.52307 | 39.70650 | 10959 ft | 320 kts | 85° |
| 2026-05-07 11:59 | 43.52106 | 39.73692 | 10990 ft | 324 kts | 107° |
| 2026-05-07 11:59 | 43.51016 | 39.76407 | 11010 ft | 327 kts | 129° |
| 2026-05-07 11:59 | 43.49214 | 39.78364 | 11106 ft | 341 kts | 152° |
| 2026-05-07 11:59 | 43.46914 | 39.79318 | 11700 ft | 350 kts | 172° |
| 2026-05-07 12:00 | 43.44512 | 39.79610 | 12480 ft | 352 kts | 174° |
| 2026-05-07 12:00 | 43.42063 | 39.79861 | 13222 ft | 356 kts | 174° |
| 2026-05-07 12:00 | 43.39582 | 39.80049 | 13963 ft | 361 kts | 182° |
| 2026-05-07 12:00 | 43.37131 | 39.79216 | 14600 ft | 367 kts | 203° |
| 2026-05-07 12:01 | 43.34815 | 39.77735 | 15352 ft | 369 kts | 205° |
| 2026-05-07 12:01 | 43.32486 | 39.76188 | 16055 ft | 373 kts | 206° |
| 2026-05-07 12:01 | 43.30139 | 39.74628 | 16752 ft | 377 kts | 206° |
| 2026-05-07 12:01 | 43.27756 | 39.73058 | 17455 ft | 381 kts | 205° |
| 2026-05-07 12:02 | 43.25344 | 39.71484 | 18147 ft | 385 kts | 205° |
| 2026-05-07 12:02 | 43.22912 | 39.69909 | 18787 ft | 389 kts | 205° |
| 2026-05-07 12:02 | 43.20446 | 39.68320 | 19389 ft | 392 kts | 205° |
| 2026-05-07 12:02 | 43.17968 | 39.66726 | 19999 ft | 396 kts | 205° |
| 2026-05-07 12:03 | 43.15492 | 39.65135 | 20560 ft | 400 kts | 205° |
| 2026-05-07 12:03 | 43.12965 | 39.63512 | 21132 ft | 403 kts | 205° |
| 2026-05-07 12:03 | 43.10415 | 39.61878 | 21713 ft | 407 kts | 205° |
| 2026-05-07 12:03 | 43.07823 | 39.60265 | 22281 ft | 410 kts | 200° |
| 2026-05-07 12:04 | 43.05052 | 39.59318 | 22810 ft | 413 kts | 189° |
| 2026-05-07 12:04 | 43.02198 | 39.58715 | 23383 ft | 416 kts | 187° |
| 2026-05-07 12:04 | 42.99315 | 39.58153 | 23886 ft | 420 kts | 187° |
| 2026-05-07 12:04 | 42.96404 | 39.57574 | 24282 ft | 424 kts | 188° |
| 2026-05-07 12:05 | 42.93478 | 39.56963 | 24712 ft | 428 kts | 188° |
| 2026-05-07 12:05 | 42.90566 | 39.56331 | 25171 ft | 430 kts | 188° |
| 2026-05-07 12:05 | 42.87572 | 39.55666 | 25640 ft | 432 kts | 188° |
| 2026-05-07 12:05 | 42.84632 | 39.55006 | 26064 ft | 435 kts | 188° |
| 2026-05-07 12:06 | 42.81643 | 39.54335 | 26496 ft | 437 kts | 188° |
| 2026-05-07 12:06 | 42.78637 | 39.53661 | 26920 ft | 440 kts | 187° |
| 2026-05-07 12:06 | 42.75602 | 39.52983 | 27296 ft | 443 kts | 187° |
| 2026-05-07 12:06 | 42.72533 | 39.52300 | 27661 ft | 446 kts | 187° |
| 2026-05-07 12:07 | 42.69454 | 39.52013 | 28001 ft | 446 kts | 171° |
| 2026-05-07 12:07 | 42.66478 | 39.53082 | 28399 ft | 441 kts | 152° |
| 2026-05-07 12:07 | 42.63901 | 39.55279 | 28826 ft | 435 kts | 136° |
| 2026-05-07 12:07 | 42.61868 | 39.58279 | 29217 ft | 432 kts | 122° |
| 2026-05-07 12:08 | 42.60472 | 39.61863 | 29570 ft | 428 kts | 106° |
| 2026-05-07 12:08 | 42.59593 | 39.65725 | 29999 ft | 427 kts | 103° |
| 2026-05-07 12:08 | 42.58794 | 39.69549 | 30366 ft | 428 kts | 103° |
| 2026-05-07 12:08 | 42.57990 | 39.73454 | 30669 ft | 430 kts | 103° |
| 2026-05-07 12:09 | 42.57171 | 39.77371 | 30946 ft | 432 kts | 103° |
| 2026-05-07 12:09 | 42.56338 | 39.81280 | 31263 ft | 432 kts | 104° |
| 2026-05-07 12:09 | 42.55491 | 39.85190 | 31597 ft | 433 kts | 104° |
| 2026-05-07 12:09 | 42.54632 | 39.89118 | 31893 ft | 434 kts | 104° |
| 2026-05-07 12:10 | 42.53768 | 39.93044 | 32189 ft | 436 kts | 104° |
| 2026-05-07 12:10 | 42.52898 | 39.96990 | 32506 ft | 436 kts | 105° |
| 2026-05-07 12:10 | 42.52023 | 40.00948 | 32770 ft | 438 kts | 105° |
| 2026-05-07 12:10 | 42.51148 | 40.04909 | 33039 ft | 440 kts | 105° |
| 2026-05-07 12:11 | 42.50278 | 40.08838 | 33354 ft | 440 kts | 105° |
| 2026-05-07 12:11 | 42.49397 | 40.12811 | 33653 ft | 441 kts | 105° |
| 2026-05-07 12:11 | 42.48521 | 40.16812 | 33913 ft | 443 kts | 104° |
| 2026-05-07 12:11 | 42.47689 | 40.20842 | 34187 ft | 444 kts | 104° |
| 2026-05-07 12:12 | 42.46882 | 40.24873 | 34433 ft | 444 kts | 104° |
| 2026-05-07 12:12 | 42.46078 | 40.28924 | 34672 ft | 445 kts | 104° |
| 2026-05-07 12:12 | 42.45269 | 40.32986 | 34863 ft | 447 kts | 104° |
| 2026-05-07 12:12 | 42.44454 | 40.37049 | 35075 ft | 448 kts | 104° |
| 2026-05-07 12:13 | 42.43630 | 40.41130 | 35209 ft | 451 kts | 105° |
| 2026-05-07 12:13 | 42.41961 | 40.49335 | 35199 ft | 452 kts | 105° |
| 2026-05-07 12:14 | 42.40301 | 40.57438 | 35186 ft | 445 kts | 105° |
| 2026-05-07 12:14 | 42.38632 | 40.65552 | 35200 ft | 445 kts | 105° |
| 2026-05-07 12:15 | 42.36976 | 40.73580 | 35204 ft | 447 kts | 105° |
| 2026-05-07 12:15 | 42.35297 | 40.81685 | 35203 ft | 448 kts | 105° |
| 2026-05-07 12:16 | 42.33606 | 40.89815 | 35202 ft | 450 kts | 105° |
| 2026-05-07 12:16 | 42.31901 | 40.97981 | 35194 ft | 451 kts | 105° |
| 2026-05-07 12:17 | 42.30187 | 41.06158 | 35192 ft | 453 kts | 106° |
| 2026-05-07 12:17 | 42.28466 | 41.14334 | 35193 ft | 453 kts | 106° |
| 2026-05-07 12:18 | 42.26733 | 41.22538 | 35195 ft | 454 kts | 106° |
| 2026-05-07 12:18 | 42.24996 | 41.30729 | 35185 ft | 454 kts | 106° |
| 2026-05-07 12:19 | 42.23253 | 41.38916 | 35179 ft | 454 kts | 106° |
| 2026-05-07 12:19 | 42.21506 | 41.47092 | 35180 ft | 453 kts | 106° |
| 2026-05-07 12:20 | 42.19756 | 41.55249 | 35177 ft | 452 kts | 106° |
| 2026-05-07 12:20 | 42.18004 | 41.63388 | 35181 ft | 451 kts | 107° |
| 2026-05-07 12:21 | 42.16251 | 41.71502 | 35178 ft | 450 kts | 107° |
| 2026-05-07 12:21 | 42.14458 | 41.79596 | 35164 ft | 450 kts | 107° |
| 2026-05-07 12:22 | 42.12632 | 41.87668 | 35163 ft | 450 kts | 108° |
| 2026-05-07 12:22 | 42.10802 | 41.95744 | 35170 ft | 450 kts | 108° |
| 2026-05-07 12:23 | 42.08972 | 42.03812 | 35157 ft | 451 kts | 108° |
| 2026-05-07 12:23 | 42.07137 | 42.11887 | 35159 ft | 451 kts | 108° |
| 2026-05-07 12:24 | 42.05292 | 42.19972 | 35164 ft | 452 kts | 108° |
| 2026-05-07 12:24 | 42.03438 | 42.28070 | 35160 ft | 453 kts | 108° |
| 2026-05-07 12:25 | 42.01573 | 42.36184 | 35152 ft | 454 kts | 108° |
| 2026-05-07 12:25 | 41.99701 | 42.44297 | 35155 ft | 455 kts | 109° |
| 2026-05-07 12:26 | 41.97821 | 42.52417 | 35163 ft | 456 kts | 109° |
| 2026-05-07 12:26 | 41.95931 | 42.60552 | 35160 ft | 456 kts | 109° |
| 2026-05-07 12:27 | 41.94044 | 42.68651 | 35149 ft | 457 kts | 109° |
| 2026-05-07 12:27 | 41.92137 | 42.76804 | 35157 ft | 458 kts | 109° |
| 2026-05-07 12:28 | 41.89499 | 42.84505 | 35166 ft | 453 kts | 127° |
| 2026-05-07 12:28 | 41.85325 | 42.90755 | 35170 ft | 449 kts | 140° |
| 2026-05-07 12:29 | 41.80709 | 42.96391 | 35168 ft | 449 kts | 141° |
| 2026-05-07 12:29 | 41.76081 | 43.02045 | 35171 ft | 450 kts | 140° |
| 2026-05-07 12:30 | 41.71467 | 43.07738 | 35159 ft | 451 kts | 140° |
| 2026-05-07 12:30 | 41.66855 | 43.13449 | 35153 ft | 452 kts | 141° |
| 2026-05-07 12:31 | 41.62245 | 43.19150 | 35174 ft | 452 kts | 141° |
| 2026-05-07 12:31 | 41.57623 | 43.24851 | 35173 ft | 452 kts | 141° |
| 2026-05-07 12:32 | 41.52998 | 43.30545 | 35157 ft | 451 kts | 141° |
| 2026-05-07 12:32 | 41.48403 | 43.36191 | 35157 ft | 448 kts | 141° |
| 2026-05-07 12:33 | 41.42351 | 43.43611 | 34634 ft | 434 kts | 142° |
| 2026-05-07 12:33 | 41.40131 | 43.46329 | 34211 ft | 431 kts | 142° |
| 2026-05-07 12:33 | 41.37928 | 43.49021 | 33770 ft | 428 kts | 142° |
| 2026-05-07 12:34 | 41.35747 | 43.51683 | 33335 ft | 424 kts | 142° |
| 2026-05-07 12:34 | 41.33577 | 43.54329 | 32915 ft | 420 kts | 142° |
| 2026-05-07 12:34 | 41.31432 | 43.56942 | 32519 ft | 416 kts | 142° |
| 2026-05-07 12:34 | 41.29300 | 43.59538 | 32106 ft | 413 kts | 141° |
| 2026-05-07 12:35 | 41.27186 | 43.62108 | 31709 ft | 409 kts | 141° |
| 2026-05-07 12:35 | 41.25091 | 43.64655 | 31300 ft | 406 kts | 142° |
| 2026-05-07 12:35 | 41.23014 | 43.67177 | 30918 ft | 403 kts | 142° |
| 2026-05-07 12:35 | 41.20979 | 43.69647 | 30543 ft | 400 kts | 142° |
| 2026-05-07 12:36 | 41.18928 | 43.72133 | 30150 ft | 397 kts | 142° |
| 2026-05-07 12:36 | 41.16893 | 43.74595 | 29695 ft | 394 kts | 142° |
| 2026-05-07 12:36 | 41.14803 | 43.76876 | 29284 ft | 384 kts | 152° |
| 2026-05-07 12:36 | 41.12453 | 43.78434 | 28929 ft | 373 kts | 164° |
| 2026-05-07 12:37 | 41.09995 | 43.79316 | 28604 ft | 361 kts | 175° |
| 2026-05-07 12:37 | 41.07518 | 43.79702 | 28240 ft | 356 kts | 177° |
| 2026-05-07 12:37 | 41.05067 | 43.80038 | 27828 ft | 353 kts | 177° |
| 2026-05-07 12:37 | 41.02627 | 43.80374 | 27462 ft | 350 kts | 177° |
| 2026-05-07 12:38 | 41.00210 | 43.80716 | 27065 ft | 348 kts | 176° |
| 2026-05-07 12:38 | 40.97801 | 43.81065 | 26693 ft | 347 kts | 176° |
| 2026-05-07 12:38 | 40.95402 | 43.81419 | 26320 ft | 347 kts | 176° |
| 2026-05-07 12:38 | 40.92991 | 43.81778 | 25953 ft | 353 kts | 176° |
| 2026-05-07 12:39 | 40.90513 | 43.82148 | 25570 ft | 363 kts | 175° |
| 2026-05-07 12:39 | 40.87996 | 43.82525 | 25180 ft | 364 kts | 175° |
| 2026-05-07 12:39 | 40.85487 | 43.82902 | 24777 ft | 361 kts | 176° |
| 2026-05-07 12:39 | 40.82998 | 43.83274 | 24385 ft | 359 kts | 176° |
| 2026-05-07 12:40 | 40.80525 | 43.83628 | 24010 ft | 356 kts | 176° |
| 2026-05-07 12:40 | 40.78061 | 43.83973 | 23590 ft | 355 kts | 176° |
| 2026-05-07 12:40 | 40.75613 | 43.84317 | 23147 ft | 353 kts | 176° |
| 2026-05-07 12:40 | 40.73182 | 43.84660 | 22736 ft | 350 kts | 176° |
| 2026-05-07 12:41 | 40.70775 | 43.84987 | 22376 ft | 346 kts | 176° |
| 2026-05-07 12:41 | 40.68386 | 43.85294 | 21987 ft | 343 kts | 176° |
| 2026-05-07 12:41 | 40.66021 | 43.85595 | 21611 ft | 341 kts | 176° |
| 2026-05-07 12:41 | 40.63671 | 43.85894 | 21254 ft | 337 kts | 176° |
| 2026-05-07 12:42 | 40.61343 | 43.86191 | 20883 ft | 335 kts | 176° |
| 2026-05-07 12:42 | 40.59034 | 43.86486 | 20520 ft | 332 kts | 176° |
| 2026-05-07 12:42 | 40.56742 | 43.86779 | 20163 ft | 330 kts | 176° |
| 2026-05-07 12:42 | 40.54463 | 43.87071 | 19807 ft | 328 kts | 176° |
| 2026-05-07 12:43 | 40.52189 | 43.87362 | 19446 ft | 327 kts | 176° |
| 2026-05-07 12:43 | 40.49932 | 43.87651 | 19079 ft | 326 kts | 176° |
| 2026-05-07 12:43 | 40.47678 | 43.87940 | 18722 ft | 325 kts | 176° |
| 2026-05-07 12:43 | 40.45432 | 43.88227 | 18364 ft | 323 kts | 176° |
| 2026-05-07 12:44 | 40.43194 | 43.88513 | 17931 ft | 322 kts | 176° |
| 2026-05-07 12:44 | 40.40988 | 43.88821 | 17742 ft | 315 kts | 172° |
| 2026-05-07 12:44 | 40.38967 | 43.89865 | 17551 ft | 313 kts | 148° |
| 2026-05-07 12:44 | 40.37377 | 43.91817 | 17204 ft | 316 kts | 128° |
| 2026-05-07 12:45 | 40.36201 | 43.94254 | 16883 ft | 315 kts | 123° |
| 2026-05-07 12:45 | 40.35103 | 43.96740 | 16545 ft | 314 kts | 122° |
| 2026-05-07 12:45 | 40.34023 | 43.99230 | 16218 ft | 313 kts | 122° |
| 2026-05-07 12:45 | 40.32946 | 44.01707 | 15900 ft | 312 kts | 122° |
| 2026-05-07 12:46 | 40.31870 | 44.04165 | 15555 ft | 311 kts | 122° |
| 2026-05-07 12:46 | 40.30791 | 44.06614 | 15219 ft | 310 kts | 122° |
| 2026-05-07 12:46 | 40.29711 | 44.09056 | 14887 ft | 309 kts | 123° |
| 2026-05-07 12:46 | 40.28647 | 44.11450 | 14578 ft | 307 kts | 123° |
| 2026-05-07 12:47 | 40.27571 | 44.13866 | 14248 ft | 306 kts | 123° |
| 2026-05-07 12:47 | 40.26496 | 44.16273 | 13932 ft | 305 kts | 123° |
| 2026-05-07 12:47 | 40.25424 | 44.18674 | 13585 ft | 305 kts | 123° |
| 2026-05-07 12:47 | 40.24353 | 44.21067 | 13242 ft | 303 kts | 123° |
| 2026-05-07 12:48 | 40.23287 | 44.23447 | 12913 ft | 302 kts | 123° |
| 2026-05-07 12:48 | 40.22224 | 44.25817 | 12592 ft | 302 kts | 123° |
| 2026-05-07 12:48 | 40.21163 | 44.28184 | 12254 ft | 301 kts | 123° |
| 2026-05-07 12:48 | 40.20098 | 44.30555 | 11878 ft | 302 kts | 122° |
| 2026-05-07 12:49 | 40.19033 | 44.32927 | 11561 ft | 300 kts | 123° |
| 2026-05-07 12:49 | 40.17996 | 44.35236 | 11511 ft | 289 kts | 123° |
| 2026-05-07 12:49 | 40.16994 | 44.37467 | 11442 ft | 280 kts | 123° |
| 2026-05-07 12:49 | 40.16024 | 44.39622 | 11375 ft | 269 kts | 123° |
| 2026-05-07 12:50 | 40.15101 | 44.41673 | 11312 ft | 254 kts | 123° |
| 2026-05-07 12:50 | 40.14231 | 44.43604 | 11234 ft | 239 kts | 123° |
| 2026-05-07 12:50 | 40.13414 | 44.45424 | 11137 ft | 225 kts | 122° |
| 2026-05-07 12:50 | 40.12681 | 44.47188 | 10952 ft | 218 kts | 121° |
| 2026-05-07 12:51 | 40.11973 | 44.48927 | 10638 ft | 216 kts | 120° |
| 2026-05-07 12:51 | 40.11275 | 44.50639 | 10299 ft | 216 kts | 120° |
| 2026-05-07 12:51 | 40.10690 | 44.52070 | 10036 ft | 215 kts | 120° |
| 2026-05-07 12:51 | 40.09987 | 44.53783 | 9690 ft | 214 kts | 120° |
| 2026-05-07 12:52 | 40.09290 | 44.55471 | 9361 ft | 212 kts | 120° |
| 2026-05-07 12:52 | 40.08590 | 44.57157 | 9132 ft | 205 kts | 121° |
| 2026-05-07 12:52 | 40.07919 | 44.58768 | 8768 ft | 205 kts | 121° |
| 2026-05-07 12:52 | 40.07366 | 44.60476 | 8373 ft | 208 kts | 94° |
| 2026-05-07 12:53 | 40.07827 | 44.62253 | 7996 ft | 209 kts | 45° |
| 2026-05-07 12:53 | 40.09094 | 44.63020 | 7614 ft | 208 kts | 358° |
| 2026-05-07 12:53 | 40.10419 | 44.62421 | 7282 ft | 202 kts | 326° |
| 2026-05-07 12:53 | 40.11610 | 44.61455 | 6953 ft | 202 kts | 327° |
| 2026-05-07 12:54 | 40.12820 | 44.60506 | 6655 ft | 202 kts | 328° |
| 2026-05-07 12:54 | 40.13984 | 44.59491 | 6337 ft | 201 kts | 315° |
| 2026-05-07 12:54 | 40.14705 | 44.57966 | 5993 ft | 197 kts | 284° |
| 2026-05-07 12:54 | 40.14846 | 44.56145 | 5399 ft | 208 kts | 269° |
| 2026-05-07 12:55 | 40.14823 | 44.54256 | 5051 ft | 208 kts | 268° |
| 2026-05-07 12:55 | 40.14802 | 44.52375 | 4722 ft | 204 kts | 268° |
| 2026-05-07 12:55 | 40.14788 | 44.50569 | 4430 ft | 193 kts | 268° |
| 2026-05-07 12:55 | 40.14778 | 44.48861 | 4118 ft | 184 kts | 268° |
| 2026-05-07 12:56 | 40.14768 | 44.47235 | 3862 ft | 172 kts | 269° |
| 2026-05-07 12:56 | 40.14760 | 44.45712 | 3591 ft | 164 kts | 269° |
| 2026-05-07 12:56 | 40.14751 | 44.44267 | 3325 ft | 152 kts | 268° |
| 2026-05-07 12:56 | 40.14748 | 44.42895 | 3039 ft | 148 kts | 268° |
| 2026-05-07 12:57 | 40.14738 | 44.41577 | 2849 ft | 141 kts | 269° |
| 2026-05-07 12:57 | 40.14731 | 44.40395 | 2841 ft | 111 kts | 269° |
| 2026-05-07 12:57 | 40.14726 | 44.39935 | 2840 ft | 11 kts | 266° |
| 2026-05-07 12:57 | 40.14714 | 44.39856 | 2839 ft | 4 kts | 294° |
| 2026-05-07 12:58 | 40.14730 | 44.39872 | 2839 ft | 5 kts | 84° |
| 2026-05-07 12:58 | 40.14729 | 44.39918 | 2840 ft | 5 kts | 92° |
| 2026-05-07 12:58 | 40.14728 | 44.39964 | 2841 ft | 5 kts | 90° |
| 2026-05-07 12:58 | 40.14745 | 44.40006 | 2841 ft | 6 kts | 48° |
| 2026-05-07 12:59 | 40.14790 | 44.40035 | 2840 ft | 9 kts | 8° |
| 2026-05-07 12:59 | 40.14853 | 44.40037 | 2839 ft | 9 kts | 360° |
| 2026-05-07 12:59 | 40.14917 | 44.40036 | 2839 ft | 9 kts | 359° |
| 2026-05-07 12:59 | 40.14978 | 44.40033 | 2840 ft | 8 kts | 346° |
| 2026-05-07 13:00 | 40.15020 | 44.40012 | 2838 ft | 6 kts | 351° |
| 2026-05-07 13:00 | 40.15063 | 44.40013 | 2840 ft | 6 kts | 1° |
| 2026-05-07 13:00 | 40.15091 | 44.40013 | 2840 ft | 2 kts | 359° |
| 2026-05-07 13:00 | 40.15096 | 44.40013 | 2840 ft | 0 kts | 359° |